createdAt,value
2024-03-04T00:00:38.855Z,2.40
2024-03-04T00:02:20.227Z,2.27
2024-03-04T00:04:01.740Z,2.38
2024-03-04T00:05:43.248Z,2.39
2024-03-04T00:07:24.675Z,2.66
2024-03-04T00:09:06.296Z,2.73
2024-03-04T00:10:47.734Z,2.61
2024-03-04T00:12:29.118Z,2.64
2024-03-04T00:14:10.489Z,2.97
2024-03-04T00:15:51.814Z,2.89
2024-03-04T00:17:33.186Z,2.86
2024-03-04T00:19:14.587Z,2.82
2024-03-04T00:20:55.942Z,2.57
2024-03-04T00:22:37.374Z,2.41
2024-03-04T00:24:18.795Z,2.17
2024-03-04T00:26:00.151Z,2.16
2024-03-04T00:27:41.523Z,2.34
2024-03-04T00:29:22.888Z,2.05
2024-03-04T00:31:04.405Z,1.84
2024-03-04T00:32:45.877Z,1.64
2024-03-04T00:34:27.290Z,0.93
2024-03-04T00:36:08.639Z,0.13
2024-03-04T00:37:49.993Z,0.04
2024-03-04T00:39:31.382Z,-0.13
2024-03-04T00:41:12.713Z,-0.03
2024-03-04T00:42:54.093Z,0.35
2024-03-04T00:44:35.460Z,0.69
2024-03-04T00:46:16.824Z,0.71
2024-03-04T00:47:58.199Z,0.94
2024-03-04T00:49:39.591Z,1.28
2024-03-04T00:51:20.969Z,1.51
2024-03-04T00:53:02.299Z,1.62
2024-03-04T00:54:43.664Z,1.68
2024-03-04T00:56:25.019Z,1.27
2024-03-04T00:58:06.386Z,0.95
2024-03-04T00:59:47.782Z,0.74
2024-03-04T01:01:29.212Z,0.41
2024-03-04T01:03:10.573Z,0.10
2024-03-04T01:04:51.958Z,-0.11
2024-03-04T01:06:33.310Z,-0.33
2024-03-04T01:08:14.671Z,-0.39
2024-03-04T01:09:56.054Z,-0.10
2024-03-04T01:11:37.468Z,-0.02
2024-03-04T01:13:18.831Z,-0.12
2024-03-04T01:15:00.311Z,0.01
2024-03-04T01:16:41.693Z,0.05
2024-03-04T01:18:23.112Z,0.13
2024-03-04T01:20:04.652Z,0.23
2024-03-04T01:21:46.033Z,-0.20
2024-03-04T01:23:27.388Z,-0.23
2024-03-04T01:25:08.793Z,-0.22
2024-03-04T01:26:50.176Z,-0.21
2024-03-04T01:28:31.611Z,-0.41
2024-03-04T01:30:12.960Z,-0.30
2024-03-04T01:31:54.342Z,-0.02
2024-03-04T01:33:35.710Z,0.21
2024-03-04T01:35:17.095Z,0.61
2024-03-04T01:36:58.453Z,0.94
2024-03-04T01:38:39.854Z,0.79
2024-03-04T01:40:21.272Z,0.47
2024-03-04T01:42:02.644Z,1.00
2024-03-04T01:43:44.060Z,1.34
2024-03-04T01:45:25.408Z,1.50
2024-03-04T01:47:06.801Z,1.61
2024-03-04T01:48:48.221Z,1.93
2024-03-04T01:50:29.569Z,1.93
2024-03-04T01:52:10.926Z,2.16
2024-03-04T01:53:52.479Z,1.84
2024-03-04T01:55:33.890Z,1.14
2024-03-04T01:57:15.356Z,0.73
2024-03-04T01:58:56.725Z,0.86
2024-03-04T02:00:38.133Z,0.85
2024-03-04T02:02:19.505Z,0.99
2024-03-04T02:04:00.941Z,1.28
2024-03-04T02:05:42.361Z,1.53
2024-03-04T02:07:23.781Z,1.81
2024-03-04T02:09:05.181Z,1.87
2024-03-04T02:10:46.587Z,1.64
2024-03-04T02:12:27.996Z,1.78
2024-03-04T02:14:09.378Z,1.94
2024-03-04T02:15:50.768Z,2.12
2024-03-04T02:17:32.151Z,2.34
2024-03-04T02:19:13.549Z,2.42
2024-03-04T02:20:55.007Z,2.15
2024-03-04T02:22:36.471Z,2.07
2024-03-04T02:24:17.874Z,2.04
2024-03-04T02:25:59.261Z,2.03
2024-03-04T02:27:40.636Z,2.12
2024-03-04T02:29:22.042Z,2.07
2024-03-04T02:31:03.481Z,2.23
2024-03-04T02:32:44.989Z,2.42
2024-03-04T02:34:26.516Z,1.81
2024-03-04T02:36:07.904Z,2.10
2024-03-04T02:37:49.246Z,2.06
2024-03-04T02:39:30.638Z,2.10
2024-03-04T02:41:12.065Z,1.89
2024-03-04T02:42:53.419Z,1.59
2024-03-04T02:44:34.779Z,1.23
2024-03-04T02:46:16.167Z,1.24
2024-03-04T02:47:57.826Z,1.04
2024-03-04T02:49:39.283Z,1.07
2024-03-04T02:51:20.698Z,1.13
2024-03-04T02:53:02.703Z,1.27
2024-03-04T02:54:44.174Z,1.58
2024-03-04T02:56:25.548Z,1.89
2024-03-04T02:58:06.955Z,2.08
2024-03-04T02:59:48.372Z,2.32
2024-03-04T03:01:29.825Z,2.47
2024-03-04T03:03:11.283Z,2.28
2024-03-04T03:04:52.629Z,1.92
2024-03-04T03:06:34.030Z,2.09
2024-03-04T03:08:15.452Z,2.37
2024-03-04T03:09:56.817Z,2.66
2024-03-04T03:11:38.288Z,2.57
2024-03-04T03:13:19.642Z,2.63
2024-03-04T03:15:01.028Z,2.46
2024-03-04T03:16:42.516Z,2.44
2024-03-04T03:18:23.895Z,2.39
2024-03-04T03:20:05.244Z,2.51
2024-03-04T03:21:46.747Z,2.68
2024-03-04T03:23:28.158Z,2.73
2024-03-04T03:25:10.676Z,2.72
2024-03-04T03:26:52.104Z,2.80
2024-03-04T03:28:33.510Z,2.91
2024-03-04T03:30:14.855Z,2.91
2024-03-04T03:31:56.228Z,2.78
2024-03-04T03:33:37.590Z,2.22
2024-03-04T03:35:18.957Z,2.08
2024-03-04T03:37:00.381Z,1.82
2024-03-04T03:38:41.780Z,2.21
2024-03-04T03:40:23.252Z,2.00
2024-03-04T03:42:04.724Z,1.49
2024-03-04T03:43:46.074Z,1.12
2024-03-04T03:45:27.463Z,0.80
2024-03-04T03:47:08.841Z,0.51
2024-03-04T03:48:50.204Z,0.54
2024-03-04T03:50:31.565Z,0.79
2024-03-04T03:52:13.029Z,1.08
2024-03-04T03:53:54.415Z,1.42
2024-03-04T03:55:35.903Z,1.33
2024-03-04T03:57:17.337Z,0.91
2024-03-04T03:58:58.746Z,0.63
2024-03-04T04:00:40.159Z,0.74
2024-03-04T04:02:21.555Z,1.02
2024-03-04T04:04:02.965Z,1.10
2024-03-04T04:05:44.334Z,1.22
2024-03-04T04:07:25.736Z,1.27
2024-03-04T04:09:07.101Z,1.41
2024-03-04T04:10:48.511Z,1.56
2024-03-04T04:12:42.959Z,1.67
2024-03-04T04:14:24.356Z,1.92
2024-03-04T04:16:05.780Z,1.19
2024-03-04T04:17:47.213Z,1.34
2024-03-04T04:19:28.673Z,1.42
2024-03-04T04:21:10.073Z,1.43
2024-03-04T04:22:51.445Z,1.16
2024-03-04T04:24:32.853Z,0.76
2024-03-04T04:26:14.248Z,0.83
2024-03-04T04:27:55.734Z,0.64
2024-03-04T04:29:37.161Z,0.27
2024-03-04T04:31:18.554Z,0.22
2024-03-04T04:33:00.016Z,0.13
2024-03-04T04:34:41.440Z,0.56
2024-03-04T04:36:22.857Z,0.90
2024-03-04T04:38:04.221Z,1.31
2024-03-04T04:39:45.578Z,1.47
2024-03-04T04:41:26.952Z,0.79
2024-03-04T04:43:08.341Z,0.97
2024-03-04T04:44:49.693Z,1.07
2024-03-04T04:46:31.065Z,1.36
2024-03-04T04:48:12.449Z,1.43
2024-03-04T04:49:53.846Z,1.67
2024-03-04T04:51:35.253Z,1.97
2024-03-04T04:53:16.653Z,2.11
2024-03-04T04:54:58.123Z,2.34
2024-03-04T04:56:39.491Z,2.49
2024-03-04T04:58:20.945Z,2.78
2024-03-04T05:00:02.369Z,2.95
2024-03-04T05:01:43.923Z,3.07
2024-03-04T05:03:39.613Z,3.20
2024-03-04T05:05:26.795Z,3.02
2024-03-04T05:07:08.275Z,2.79
2024-03-04T05:08:49.618Z,2.59
2024-03-04T05:10:30.994Z,2.50
2024-03-04T05:12:12.328Z,2.35
2024-03-04T05:13:53.777Z,1.92
2024-03-04T05:15:35.207Z,1.76
2024-03-04T05:17:16.554Z,2.15
2024-03-04T05:18:58.136Z,2.15
2024-03-04T05:20:50.602Z,1.93
2024-03-04T05:22:37.631Z,1.24
2024-03-04T05:24:19.199Z,0.97
2024-03-04T05:26:00.597Z,0.88
2024-03-04T05:27:41.973Z,0.53
2024-03-04T05:29:23.361Z,0.16
2024-03-04T05:31:04.727Z,0.09
2024-03-04T05:32:46.131Z,-0.22
2024-03-04T05:34:27.614Z,-0.18
2024-03-04T05:36:09.049Z,-0.04
2024-03-04T05:37:50.448Z,-0.17
2024-03-04T05:39:31.808Z,-0.32
2024-03-04T05:41:13.176Z,-0.52
2024-03-04T05:42:54.526Z,-0.52
2024-03-04T05:44:35.864Z,-0.36
2024-03-04T05:46:17.313Z,-0.05
2024-03-04T05:47:58.773Z,0.29
2024-03-04T05:49:40.228Z,0.79
2024-03-04T05:51:21.674Z,1.14
2024-03-04T05:53:03.029Z,1.24
2024-03-04T05:54:44.373Z,1.30
2024-03-04T05:56:25.747Z,1.13
2024-03-04T05:58:07.148Z,1.53
2024-03-04T05:59:48.543Z,1.94
2024-03-04T06:01:29.983Z,2.20
2024-03-04T06:03:11.378Z,2.26
2024-03-04T06:04:52.769Z,1.99
2024-03-04T06:06:34.174Z,1.94
2024-03-04T06:08:15.509Z,2.05
2024-03-04T06:09:56.850Z,2.23
2024-03-04T06:11:38.332Z,2.40
2024-03-04T06:13:19.772Z,2.06
2024-03-04T06:15:01.112Z,1.94
2024-03-04T06:16:42.523Z,2.04
2024-03-04T06:18:23.886Z,2.30
2024-03-04T06:20:05.251Z,2.47
2024-03-04T06:21:51.750Z,2.63
2024-03-04T06:23:38.481Z,2.55
2024-03-04T06:25:19.881Z,2.63
2024-03-04T06:27:01.225Z,2.79
2024-03-04T06:28:42.655Z,2.79
2024-03-04T06:30:24.072Z,3.10
2024-03-04T06:32:05.503Z,3.04
2024-03-04T06:33:52.854Z,2.85
2024-03-04T06:35:35.526Z,2.55
2024-03-04T06:37:16.906Z,2.64
2024-03-04T06:38:58.261Z,2.78
2024-03-04T06:40:39.705Z,2.84
2024-03-04T06:42:21.062Z,2.93
2024-03-04T06:44:02.406Z,2.96
2024-03-04T06:45:43.724Z,3.06
2024-03-04T06:47:25.117Z,2.52
2024-03-04T06:49:06.488Z,1.45
2024-03-04T06:50:47.847Z,1.00
2024-03-04T06:52:29.259Z,0.75
2024-03-04T06:54:10.643Z,1.13
2024-03-04T06:55:51.981Z,1.62
2024-03-04T06:57:34.547Z,2.01
2024-03-04T06:59:16.083Z,2.12
2024-03-04T07:00:57.478Z,1.95
2024-03-04T07:02:38.859Z,1.35
2024-03-04T07:04:20.221Z,0.60
2024-03-04T07:06:01.564Z,0.73
2024-03-04T07:07:42.922Z,0.74
2024-03-04T07:09:24.330Z,0.59
2024-03-04T07:11:05.735Z,0.70
2024-03-04T07:12:47.180Z,0.93
2024-03-04T07:14:28.537Z,0.78
2024-03-04T07:16:09.868Z,1.30
2024-03-04T07:17:51.326Z,0.77
2024-03-04T07:19:32.706Z,0.47
2024-03-04T07:21:14.097Z,0.31
2024-03-04T07:22:55.435Z,0.52
2024-03-04T07:24:36.823Z,0.74
2024-03-04T07:26:20.724Z,0.50
2024-03-04T07:28:02.491Z,0.68
2024-03-04T07:29:48.835Z,0.93
2024-03-04T07:31:34.198Z,1.23
2024-03-04T07:33:17.546Z,1.41
2024-03-04T07:34:59.127Z,1.40
2024-03-04T07:36:41.119Z,1.20
2024-03-04T07:38:22.993Z,0.73
2024-03-04T07:40:04.450Z,0.56
2024-03-04T07:41:45.805Z,0.88
2024-03-04T07:43:30.267Z,0.84
2024-03-04T07:45:11.682Z,1.32
2024-03-04T07:46:53.053Z,1.59
2024-03-04T07:48:34.463Z,1.67
2024-03-04T07:50:15.836Z,1.60
2024-03-04T07:51:57.206Z,1.34
2024-03-04T07:53:38.660Z,1.76
2024-03-04T07:55:22.787Z,2.02
2024-03-04T07:57:10.648Z,2.13
2024-03-04T07:58:59.006Z,2.29
2024-03-04T08:00:40.383Z,2.16
2024-03-04T08:02:21.752Z,1.92
2024-03-04T08:04:03.237Z,1.39
2024-03-04T08:05:44.620Z,0.98
2024-03-04T08:07:25.994Z,0.81
2024-03-04T08:09:07.359Z,0.39
2024-03-04T08:10:48.802Z,0.48
2024-03-04T08:12:30.403Z,0.38
2024-03-04T08:14:14.723Z,0.33
2024-03-04T08:15:58.860Z,0.67
2024-03-04T08:17:49.900Z,1.00
2024-03-04T08:19:36.758Z,1.21
2024-03-04T08:21:18.172Z,1.39
2024-03-04T08:22:59.844Z,1.58
2024-03-04T08:24:41.444Z,0.92
2024-03-04T08:26:22.867Z,1.21
2024-03-04T08:28:04.869Z,1.39
2024-03-04T08:29:48.225Z,1.65
2024-03-04T08:31:29.812Z,1.84
2024-03-04T08:33:11.240Z,1.64
2024-03-04T08:34:52.710Z,1.77
2024-03-04T08:36:34.105Z,2.13
2024-03-04T08:38:15.430Z,2.02
2024-03-04T08:39:56.820Z,1.32
2024-03-04T08:41:38.191Z,1.14
2024-03-04T08:43:19.682Z,1.18
2024-03-04T08:45:01.095Z,1.08
2024-03-04T08:46:42.556Z,1.15
2024-03-04T08:48:23.992Z,1.30
2024-03-04T08:50:05.382Z,1.56
2024-03-04T08:51:46.739Z,1.27
2024-03-04T08:53:28.099Z,1.49
2024-03-04T08:55:09.511Z,1.87
2024-03-04T08:56:50.837Z,3.01
2024-03-04T08:58:32.199Z,3.72
2024-03-04T09:00:13.589Z,3.55
2024-03-04T09:01:55.034Z,4.55
2024-03-04T09:03:36.437Z,5.26
2024-03-04T09:05:17.855Z,5.75
2024-03-04T09:06:59.219Z,6.46
2024-03-04T09:08:40.557Z,7.32
2024-03-04T09:10:21.940Z,7.98
2024-03-04T09:12:03.300Z,8.45
2024-03-04T09:13:44.770Z,8.90
2024-03-04T09:15:26.315Z,8.91
2024-03-04T09:17:07.661Z,9.03
2024-03-04T09:18:49.119Z,8.98
2024-03-04T09:20:30.632Z,9.51
2024-03-04T09:22:12.013Z,9.69
2024-03-04T09:23:53.405Z,9.97
2024-03-04T09:25:34.856Z,10.43
2024-03-04T09:27:16.241Z,10.38
2024-03-04T09:28:57.603Z,9.77
2024-03-04T09:30:38.945Z,10.37
2024-03-04T09:32:20.274Z,11.03
2024-03-04T09:34:01.694Z,11.75
2024-03-04T09:35:43.156Z,12.31
2024-03-04T09:37:24.565Z,12.86
2024-03-04T09:39:05.920Z,13.51
2024-03-04T09:40:47.391Z,13.45
2024-03-04T09:42:28.807Z,13.34
2024-03-04T09:44:10.168Z,13.49
2024-03-04T09:45:51.539Z,13.72
2024-03-04T09:47:32.933Z,13.51
2024-03-04T09:49:14.342Z,13.24
2024-03-04T09:50:55.728Z,13.67
2024-03-04T09:52:37.122Z,13.48
2024-03-04T09:54:18.483Z,13.11
2024-03-04T09:55:59.874Z,13.23
2024-03-04T09:57:41.222Z,13.88
2024-03-04T09:59:23.042Z,14.49
2024-03-04T10:01:04.633Z,15.00
2024-03-04T10:02:46.022Z,15.37
2024-03-04T10:04:27.481Z,15.48
2024-03-04T10:06:08.870Z,14.88
2024-03-04T10:07:50.366Z,13.73
2024-03-04T10:09:32.131Z,13.35
2024-03-04T10:11:13.683Z,13.68
2024-03-04T10:12:55.071Z,14.11
2024-03-04T10:14:36.398Z,14.61
2024-03-04T10:16:17.784Z,15.20
2024-03-04T10:17:59.188Z,15.68
2024-03-04T10:19:40.623Z,16.40
2024-03-04T10:21:22.009Z,16.33
2024-03-04T10:23:03.362Z,16.11
2024-03-04T10:24:44.686Z,16.38
2024-03-04T10:26:26.056Z,16.57
2024-03-04T10:28:07.457Z,16.68
2024-03-04T10:29:48.846Z,16.31
2024-03-04T10:31:30.258Z,16.52
2024-03-04T10:33:11.699Z,16.86
2024-03-04T10:34:53.095Z,17.16
2024-03-04T10:36:34.429Z,17.42
2024-03-04T10:38:15.777Z,17.63
2024-03-04T10:39:57.109Z,17.91
2024-03-04T10:41:38.473Z,18.22
2024-03-04T10:43:19.838Z,18.32
2024-03-04T10:45:01.265Z,17.13
2024-03-04T10:46:42.664Z,15.82
2024-03-04T10:48:24.066Z,14.99
2024-03-04T10:50:05.400Z,14.98
2024-03-04T10:51:55.019Z,15.25
2024-03-04T10:53:44.879Z,15.24
2024-03-04T10:55:26.291Z,15.11
2024-03-04T10:57:07.673Z,15.32
2024-03-04T10:58:49.109Z,15.46
2024-03-04T11:00:30.495Z,15.47
2024-03-04T11:02:12.047Z,15.43
2024-03-04T11:03:53.477Z,15.79
2024-03-04T11:05:35.287Z,15.26
2024-03-04T11:07:16.826Z,15.63
2024-03-04T11:08:58.675Z,16.08
2024-03-04T11:10:40.524Z,15.46
2024-03-04T11:12:21.960Z,15.21
2024-03-04T11:14:03.297Z,15.79
2024-03-04T11:15:44.834Z,15.08
2024-03-04T11:17:26.286Z,15.17
2024-03-04T11:19:07.660Z,15.46
2024-03-04T11:20:49.001Z,15.48
2024-03-04T11:22:30.392Z,16.14
2024-03-04T11:24:11.749Z,16.30
2024-03-04T11:25:53.178Z,16.34
2024-03-04T11:27:34.625Z,16.17
2024-03-04T11:29:15.987Z,16.53
2024-03-04T11:30:57.348Z,17.15
2024-03-04T11:32:38.884Z,17.01
2024-03-04T11:34:20.336Z,16.86
2024-03-04T11:36:01.723Z,17.07
2024-03-04T11:37:43.120Z,17.94
2024-03-04T11:39:24.522Z,18.44
2024-03-04T11:41:05.902Z,18.72
2024-03-04T11:42:47.278Z,18.67
2024-03-04T11:44:28.991Z,18.52
2024-03-04T11:46:10.486Z,15.86
2024-03-04T11:47:51.945Z,12.77
2024-03-04T11:49:33.485Z,11.50
2024-03-04T11:51:14.950Z,11.10
2024-03-04T11:52:56.317Z,10.27
2024-03-04T11:54:37.805Z,9.88
2024-03-04T11:56:19.233Z,9.41
2024-03-04T11:58:00.592Z,10.27
2024-03-04T11:59:41.971Z,10.32
2024-03-04T12:01:23.549Z,10.39
2024-03-04T12:03:05.083Z,11.21
2024-03-04T12:04:46.470Z,12.13
2024-03-04T12:06:27.898Z,12.49
2024-03-04T12:08:21.458Z,13.96
2024-03-04T12:10:16.663Z,15.47
2024-03-04T12:11:59.353Z,15.48
2024-03-04T12:13:40.745Z,15.49
2024-03-04T12:15:22.098Z,15.81
2024-03-04T12:17:03.468Z,16.52
2024-03-04T12:18:44.844Z,16.49
2024-03-04T12:20:26.175Z,16.58
2024-03-04T12:22:07.592Z,16.34
2024-03-04T12:23:48.988Z,16.03
2024-03-04T12:25:30.378Z,15.90
2024-03-04T12:27:11.773Z,15.99
2024-03-04T12:28:53.174Z,15.76
2024-03-04T12:30:34.567Z,16.27
2024-03-04T12:32:16.020Z,16.80
2024-03-04T12:33:57.385Z,16.12
2024-03-04T12:35:38.724Z,16.40
2024-03-04T12:37:20.110Z,16.64
2024-03-04T12:39:01.463Z,16.52
2024-03-04T12:40:42.830Z,16.64
2024-03-04T12:42:24.233Z,16.02
2024-03-04T12:44:05.595Z,17.05
2024-03-04T12:45:46.961Z,16.89
2024-03-04T12:47:28.340Z,17.00
2024-03-04T12:49:09.751Z,17.49
2024-03-04T12:50:51.120Z,17.64
2024-03-04T12:52:32.495Z,18.13
2024-03-04T12:54:13.853Z,18.31
2024-03-04T12:55:55.242Z,18.55
2024-03-04T12:57:36.694Z,18.97
2024-03-04T12:59:18.057Z,17.98
2024-03-04T13:00:59.416Z,18.33
2024-03-04T13:02:40.807Z,18.82
2024-03-04T13:04:22.215Z,18.94
2024-03-04T13:06:03.622Z,18.01
2024-03-04T13:07:45.491Z,18.63
2024-03-04T13:09:27.060Z,17.84
2024-03-04T13:11:08.518Z,18.55
2024-03-04T13:12:49.903Z,17.63
2024-03-04T13:14:31.317Z,16.83
2024-03-04T13:16:12.737Z,16.69
2024-03-04T13:17:54.174Z,16.87
2024-03-04T13:19:35.623Z,16.59
2024-03-04T13:21:16.952Z,16.95
2024-03-04T13:22:58.373Z,17.37
2024-03-04T13:24:39.796Z,17.48
2024-03-04T13:26:21.221Z,17.27
2024-03-04T13:28:02.614Z,17.59
2024-03-04T13:29:44.037Z,17.85
2024-03-04T13:31:25.454Z,17.56
2024-03-04T13:33:06.867Z,18.10
2024-03-04T13:34:48.341Z,18.64
2024-03-04T13:36:29.675Z,18.47
2024-03-04T13:38:11.052Z,18.22
2024-03-04T13:39:52.456Z,18.08
2024-03-04T13:41:33.814Z,18.53
2024-03-04T13:43:19.575Z,17.90
2024-03-04T13:45:01.930Z,17.16
2024-03-04T13:46:43.309Z,17.47
2024-03-04T13:48:24.785Z,17.94
2024-03-04T13:50:06.229Z,17.51
2024-03-04T13:51:47.610Z,17.32
2024-03-04T13:53:28.984Z,17.48
2024-03-04T13:55:10.519Z,16.62
2024-03-04T13:56:51.966Z,17.32
2024-03-04T13:58:33.371Z,17.68
2024-03-04T14:00:15.828Z,16.79
2024-03-04T14:01:57.792Z,17.52
2024-03-04T14:03:39.201Z,17.73
2024-03-04T14:05:20.579Z,17.25
2024-03-04T14:07:01.958Z,17.00
2024-03-04T14:08:43.333Z,17.19
2024-03-04T14:10:24.838Z,16.65
2024-03-04T14:12:06.222Z,16.62
2024-03-04T14:13:47.678Z,16.69
2024-03-04T14:15:29.129Z,16.25
2024-03-04T14:17:10.493Z,16.64
2024-03-04T14:18:51.839Z,16.23
2024-03-04T14:20:33.354Z,16.83
2024-03-04T14:22:14.773Z,16.85
2024-03-04T14:23:56.123Z,17.24
2024-03-04T14:25:37.555Z,17.93
2024-03-04T14:27:18.921Z,18.53
2024-03-04T14:29:02.967Z,18.66
2024-03-04T14:30:45.957Z,18.81
2024-03-04T14:32:27.512Z,18.24
2024-03-04T14:34:09.022Z,18.39
2024-03-04T14:35:50.439Z,18.95
2024-03-04T14:37:31.883Z,19.11
2024-03-04T14:39:13.277Z,18.37
2024-03-04T14:40:57.521Z,17.72
2024-03-04T14:42:40.100Z,17.82
2024-03-04T14:44:21.446Z,17.37
2024-03-04T14:46:02.821Z,17.31
2024-03-04T14:47:44.189Z,17.22
2024-03-04T14:49:25.689Z,17.64
2024-03-04T14:51:07.141Z,16.59
2024-03-04T14:52:48.552Z,16.46
2024-03-04T14:54:29.912Z,15.95
2024-03-04T14:56:11.442Z,16.02
2024-03-04T14:57:52.900Z,15.59
2024-03-04T14:59:34.948Z,14.58
2024-03-04T15:01:17.069Z,14.63
2024-03-04T15:02:58.439Z,14.61
2024-03-04T15:04:39.961Z,14.28
2024-03-04T15:06:21.562Z,13.71
2024-03-04T15:08:02.919Z,14.07
2024-03-04T15:09:45.761Z,13.83
2024-03-04T15:11:27.265Z,13.64
2024-03-04T15:13:08.676Z,13.47
2024-03-04T15:14:50.061Z,12.99
2024-03-04T15:16:31.460Z,13.00
2024-03-04T15:18:18.462Z,13.19
2024-03-04T15:20:03.482Z,13.20
2024-03-04T15:21:44.856Z,13.28
2024-03-04T15:23:26.257Z,13.50
2024-03-04T15:25:07.612Z,13.48
2024-03-04T15:26:49.014Z,13.52
2024-03-04T15:28:30.486Z,13.60
2024-03-04T15:30:11.917Z,13.51
2024-03-04T15:31:53.328Z,13.39
2024-03-04T15:33:34.836Z,11.96
2024-03-04T15:35:16.169Z,10.84
2024-03-04T15:36:57.664Z,8.80
2024-03-04T15:38:39.081Z,7.71
2024-03-04T15:40:20.462Z,7.66
2024-03-04T15:42:01.902Z,7.26
2024-03-04T15:43:43.335Z,6.92
2024-03-04T15:45:24.742Z,6.74
2024-03-04T15:47:06.221Z,6.00
2024-03-04T15:48:47.547Z,5.85
2024-03-04T15:50:28.874Z,5.63
2024-03-04T15:52:10.334Z,5.32
2024-03-04T15:53:51.739Z,4.82
2024-03-04T15:55:33.317Z,4.80
2024-03-04T15:57:14.754Z,4.39
2024-03-04T15:58:56.115Z,4.17
2024-03-04T16:00:37.561Z,4.19
2024-03-04T16:02:18.938Z,3.95
2024-03-04T16:04:00.293Z,3.93
2024-03-04T16:05:41.646Z,3.87
2024-03-04T16:07:23.517Z,3.55
2024-03-04T16:09:05.157Z,3.60
2024-03-04T16:10:46.655Z,3.68
2024-03-04T16:12:28.470Z,4.10
2024-03-04T16:14:10.019Z,3.98
2024-03-04T16:15:54.410Z,3.89
2024-03-04T16:17:37.692Z,3.96
2024-03-04T16:19:19.138Z,3.78
2024-03-04T16:21:00.689Z,3.96
2024-03-04T16:22:42.269Z,4.34
2024-03-04T16:24:23.632Z,4.83
2024-03-04T16:26:04.981Z,5.27
2024-03-04T16:27:46.633Z,6.08
2024-03-04T16:29:28.168Z,6.47
2024-03-04T16:31:09.693Z,6.92
2024-03-04T16:32:51.236Z,7.24
2024-03-04T16:34:32.672Z,7.35
2024-03-04T16:36:14.043Z,7.45
2024-03-04T16:37:55.607Z,7.44
2024-03-04T16:39:37.113Z,7.59
2024-03-04T16:41:18.488Z,7.75
2024-03-04T16:42:59.866Z,7.89
2024-03-04T16:44:41.221Z,8.19
2024-03-04T16:46:22.634Z,8.37
2024-03-04T16:48:04.044Z,8.27
2024-03-04T16:49:45.439Z,8.25
2024-03-04T16:51:26.800Z,8.26
2024-03-04T16:53:08.201Z,8.36
2024-03-04T16:54:49.546Z,8.25
2024-03-04T16:56:30.885Z,8.08
2024-03-04T16:58:12.281Z,7.98
2024-03-04T16:59:54.261Z,7.95
2024-03-04T17:01:38.882Z,7.87
2024-03-04T17:03:23.640Z,7.73
2024-03-04T17:05:05.185Z,7.86
2024-03-04T17:06:46.544Z,7.72
2024-03-04T17:08:27.957Z,7.31
2024-03-04T17:10:09.337Z,7.46
2024-03-04T17:11:50.765Z,7.48
2024-03-04T17:13:32.163Z,7.27
2024-03-04T17:15:13.769Z,7.10
2024-03-04T17:16:55.358Z,7.14
2024-03-04T17:18:37.206Z,6.97
2024-03-04T17:20:18.804Z,6.97
2024-03-04T17:22:00.331Z,6.96
2024-03-04T17:23:42.064Z,6.13
2024-03-04T17:25:23.691Z,5.18
2024-03-04T17:27:05.314Z,3.91
2024-03-04T17:28:46.778Z,4.00
2024-03-04T17:30:28.190Z,3.87
2024-03-04T17:32:09.515Z,3.40
2024-03-04T17:33:50.886Z,2.92
2024-03-04T17:35:32.243Z,2.32
2024-03-04T17:37:13.631Z,2.22
2024-03-04T17:38:57.448Z,1.81
2024-03-04T17:40:39.272Z,1.64
2024-03-04T17:42:20.931Z,1.73
2024-03-04T17:44:02.565Z,1.90
2024-03-04T17:45:43.932Z,2.06
2024-03-04T17:47:25.296Z,2.31
2024-03-04T17:49:06.823Z,2.29
2024-03-04T17:50:49.189Z,2.70
2024-03-04T17:52:30.587Z,2.91
2024-03-04T17:54:12.386Z,2.75
2024-03-04T17:55:54.051Z,2.63
2024-03-04T17:57:35.612Z,2.84
2024-03-04T17:59:17.000Z,3.10
2024-03-04T18:00:58.532Z,3.44
2024-03-04T18:02:39.942Z,3.30
2024-03-04T18:04:21.394Z,3.49
2024-03-04T18:06:02.789Z,2.81
2024-03-04T18:07:44.216Z,2.48
2024-03-04T18:09:25.636Z,2.52
2024-03-04T18:11:07.232Z,3.17
2024-03-04T18:12:48.679Z,3.57
2024-03-04T18:14:30.162Z,2.80
2024-03-04T18:16:11.588Z,2.82
2024-03-04T18:17:53.051Z,2.89
2024-03-04T18:19:34.451Z,2.94
2024-03-04T18:21:15.819Z,3.08
2024-03-04T18:22:57.471Z,3.29
2024-03-04T18:24:38.983Z,3.60
2024-03-04T18:26:20.397Z,3.98
2024-03-04T18:28:01.798Z,4.27
2024-03-04T18:29:43.151Z,4.42
2024-03-04T18:31:24.671Z,4.80
2024-03-04T18:33:06.273Z,4.90
2024-03-04T18:34:47.969Z,5.02
2024-03-04T18:36:29.534Z,5.04
2024-03-04T18:38:10.877Z,4.95
2024-03-04T18:39:52.280Z,4.87
2024-03-04T18:41:33.954Z,4.47
2024-03-04T18:43:15.516Z,3.90
2024-03-04T18:44:56.908Z,3.57
2024-03-04T18:46:38.445Z,3.46
2024-03-04T18:48:19.966Z,3.35
2024-03-04T18:50:01.400Z,3.53
2024-03-04T18:51:42.805Z,3.51
2024-03-04T18:53:24.189Z,3.42
2024-03-04T18:55:05.538Z,3.08
2024-03-04T18:56:46.915Z,2.27
2024-03-04T18:58:28.379Z,1.85
2024-03-04T19:00:09.812Z,1.59
2024-03-04T19:01:51.342Z,1.93
2024-03-04T19:03:33.004Z,2.26
2024-03-04T19:05:14.453Z,2.55
2024-03-04T19:06:55.919Z,2.91
2024-03-04T19:08:37.291Z,3.24
2024-03-04T19:10:18.855Z,3.53
2024-03-04T19:12:00.434Z,4.16
2024-03-04T19:13:41.961Z,4.56
2024-03-04T19:15:23.476Z,4.75
2024-03-04T19:17:04.886Z,4.63
2024-03-04T19:18:46.234Z,4.10
2024-03-04T19:20:27.652Z,3.71
2024-03-04T19:22:09.060Z,3.65
2024-03-04T19:23:50.531Z,3.39
2024-03-04T19:25:31.980Z,3.55
2024-03-04T19:27:13.487Z,3.58
2024-03-04T19:28:54.906Z,3.07
2024-03-04T19:30:36.330Z,3.02
2024-03-04T19:32:17.688Z,3.24
2024-03-04T19:33:59.045Z,3.42
2024-03-04T19:35:40.423Z,3.21
2024-03-04T19:37:21.836Z,3.16
2024-03-04T19:39:03.192Z,3.13
2024-03-04T19:40:44.623Z,2.85
2024-03-04T19:42:26.167Z,2.92
2024-03-04T19:44:07.578Z,3.06
2024-03-04T19:45:48.996Z,2.47
2024-03-04T19:47:31.093Z,2.25
2024-03-04T19:49:12.635Z,2.17
2024-03-04T19:50:54.102Z,2.54
2024-03-04T19:52:35.608Z,2.45
2024-03-04T19:54:17.110Z,2.19
2024-03-04T19:55:58.484Z,2.24
2024-03-04T19:57:40.995Z,2.67
2024-03-04T19:59:22.808Z,3.03
2024-03-04T20:01:04.460Z,3.37
2024-03-04T20:02:45.838Z,3.55
2024-03-04T20:04:27.379Z,3.55
2024-03-04T20:06:08.830Z,3.73
2024-03-04T20:07:50.212Z,3.72
2024-03-04T20:09:31.742Z,3.73
2024-03-04T20:11:13.760Z,3.56
2024-03-04T20:12:55.269Z,3.45
2024-03-04T20:14:36.706Z,3.74
2024-03-04T20:16:18.136Z,3.48
2024-03-04T20:17:59.792Z,1.92
2024-03-04T20:19:41.389Z,1.25
2024-03-04T20:21:22.796Z,1.30
2024-03-04T20:23:04.320Z,1.57
2024-03-04T20:24:45.765Z,1.55
2024-03-04T20:26:27.163Z,1.24
2024-03-04T20:28:08.537Z,0.90
2024-03-04T20:29:49.943Z,0.96
2024-03-04T20:31:31.358Z,0.99
2024-03-04T20:33:12.809Z,0.93
2024-03-04T20:34:54.270Z,1.19
2024-03-04T20:36:35.879Z,1.30
2024-03-04T20:38:17.267Z,1.02
2024-03-04T20:39:58.623Z,1.07
2024-03-04T20:41:39.987Z,0.20
2024-03-04T20:43:21.396Z,0.25
2024-03-04T20:45:03.033Z,0.38
2024-03-04T20:46:44.462Z,0.65
2024-03-04T20:48:25.909Z,0.92
2024-03-04T20:50:07.358Z,1.23
2024-03-04T20:51:48.719Z,1.76
2024-03-04T20:53:30.195Z,1.88
2024-03-04T20:55:11.621Z,1.81
2024-03-04T20:56:53.003Z,2.10
2024-03-04T20:58:34.565Z,1.93
2024-03-04T21:00:15.973Z,1.89
2024-03-04T21:01:57.401Z,2.09
2024-03-04T21:03:38.845Z,2.06
2024-03-04T21:05:20.259Z,1.77
2024-03-04T21:07:01.629Z,1.15
2024-03-04T21:08:42.990Z,1.15
2024-03-04T21:10:24.490Z,1.52
2024-03-04T21:12:05.921Z,1.98
2024-03-04T21:13:47.332Z,2.23
2024-03-04T21:15:28.703Z,2.27
2024-03-04T21:17:10.103Z,2.12
2024-03-04T21:18:51.475Z,2.10
2024-03-04T21:20:32.940Z,2.14
2024-03-04T21:22:14.497Z,2.25
2024-03-04T21:23:56.058Z,2.55
2024-03-04T21:25:37.455Z,2.33
2024-03-04T21:27:18.856Z,1.65
2024-03-04T21:29:00.219Z,1.05
2024-03-04T21:30:41.653Z,1.69
2024-03-04T21:32:23.091Z,1.44
2024-03-04T21:34:04.457Z,0.82
2024-03-04T21:35:45.837Z,0.63
2024-03-04T21:37:31.832Z,0.98
2024-03-04T21:39:13.724Z,1.40
2024-03-04T21:40:55.180Z,1.57
2024-03-04T21:42:36.578Z,1.39
2024-03-04T21:44:17.941Z,1.27
2024-03-04T21:45:59.298Z,0.88
2024-03-04T21:47:40.687Z,0.44
2024-03-04T21:49:22.074Z,0.82
2024-03-04T21:51:03.490Z,0.90
2024-03-04T21:52:44.939Z,1.03
2024-03-04T21:54:26.307Z,0.32
2024-03-04T21:56:07.774Z,0.32
2024-03-04T21:57:49.369Z,-0.19
2024-03-04T21:59:30.709Z,0.14
2024-03-04T22:01:12.270Z,0.51
2024-03-04T22:02:53.692Z,0.67
2024-03-04T22:04:35.092Z,0.51
2024-03-04T22:06:16.513Z,0.86
2024-03-04T22:07:57.948Z,0.21
2024-03-04T22:09:39.423Z,-0.34
2024-03-04T22:11:20.936Z,0.27
2024-03-04T22:13:02.361Z,0.71
2024-03-04T22:14:43.712Z,1.08
2024-03-04T22:16:25.169Z,0.86
2024-03-04T22:18:06.668Z,0.69
2024-03-04T22:19:48.249Z,0.90